Time;durP1;ratioP1;P1;durP2;ratioP2;P2;SDS_P1;SDS_P2;PMS_P1;PMS_P2;Temp;Humidity;BMP_temperature;BMP_pressure;BME280_temperature;BME280_humidity;BME280_pressure;Samples;Min_cycle;Max_cycle;Signal;HPM_P1;HPM_P2
2023/09/26 00:00:23;;;;;;;5.57;2.90;;;;;;;24.05;58.73;100963.25;5114344;28;20070;-66
2023/09/26 00:02:53;;;;;;;6.03;3.10;;;;;;;24.02;58.88;100963.53;5114047;28;20066;-65
2023/09/26 00:05:23;;;;;;;5.28;2.80;;;;;;;24.03;58.40;100962.53;5114011;28;20208;-65
2023/09/26 00:07:55;;;;;;;5.63;3.05;;;;;;;24.03;58.56;100962.53;5114042;28;20052;-67
2023/09/26 00:10:23;;;;;;;5.15;2.80;;;;;;;23.99;58.56;100962.84;5113809;28;20046;-65
2023/09/26 00:12:52;;;;;;;4.57;2.65;;;;;;;24.02;58.59;100966.25;5113905;28;20169;-65
2023/09/26 00:15:20;;;;;;;5.85;3.30;;;;;;;24.01;58.54;100967.28;5113874;28;20043;-66
2023/09/26 00:17:49;;;;;;;5.90;3.30;;;;;;;24.00;58.60;100960.97;5113020;28;20097;-65
2023/09/26 00:20:18;;;;;;;6.07;2.80;;;;;;;23.98;58.66;100972.06;5113658;28;20043;-66
2023/09/26 00:22:47;;;;;;;5.00;2.78;;;;;;;23.98;58.49;100965.75;5113477;28;20088;-66
2023/09/26 00:25:18;;;;;;;5.13;2.75;;;;;;;23.98;58.38;100963.03;5113799;28;20043;-67
2023/09/26 00:27:46;;;;;;;8.45;3.00;;;;;;;23.96;58.81;100963.19;5113738;28;20074;-67
2023/09/26 00:30:16;;;;;;;4.88;2.70;;;;;;;23.97;58.63;100962.16;5113604;28;20047;-64
2023/09/26 00:32:45;;;;;;;5.35;2.63;;;;;;;23.95;58.60;100964.22;5113431;28;20057;-64
2023/09/26 00:35:13;;;;;;;5.60;3.15;;;;;;;23.95;58.73;100963.34;5113325;28;20098;-65
2023/09/26 00:37:43;;;;;;;5.75;2.90;;;;;;;23.95;58.53;100966.94;5113453;28;20093;-64
2023/09/26 00:40:15;;;;;;;4.90;3.00;;;;;;;23.93;58.47;100955.34;5113439;28;20109;-65
2023/09/26 00:42:45;;;;;;;5.22;2.72;;;;;;;23.94;58.68;100964.38;5113343;28;20075;-66
2023/09/26 00:45:15;;;;;;;5.85;3.10;;;;;;;23.92;58.57;100953.63;5113218;28;20090;-65
2023/09/26 00:47:45;;;;;;;5.93;3.10;;;;;;;23.93;58.73;100958.06;5113175;28;20048;-66
2023/09/26 00:50:13;;;;;;;5.63;3.13;;;;;;;23.91;58.67;100957.34;5113425;28;20101;-66
2023/09/26 00:52:44;;;;;;;6.22;3.20;;;;;;;23.91;58.84;100960.09;5113044;28;20044;-67
2023/09/26 00:55:15;;;;;;;4.47;2.75;;;;;;;23.90;58.80;100952.94;5113233;28;20050;-67
2023/09/26 00:57:46;;;;;;;4.55;2.90;;;;;;;23.89;58.62;100953.94;5112839;28;20044;-67
2023/09/26 01:00:19;;;;;;;5.28;2.97;;;;;;;23.90;58.59;100952.94;5112845;28;20048;-67
2023/09/26 01:02:47;;;;;;;;;;;;;;;23.89;58.84;100950.38;5095857;28;20054;-64
2023/09/26 01:05:15;;;;;;;5.10;2.90;;;;;;;23.88;58.74;100954.97;5113218;28;19924;-64
2023/09/26 01:07:43;;;;;;;4.53;2.70;;;;;;;23.88;58.64;100951.38;5112975;28;20074;-65
2023/09/26 01:10:11;;;;;;;6.10;3.03;;;;;;;23.87;58.99;100958.72;5112724;28;20039;-64
2023/09/26 01:12:40;;;;;;;5.47;3.22;;;;;;;23.87;58.68;100957.84;5112555;28;20052;-64
2023/09/26 01:15:11;;;;;;;5.57;2.80;;;;;;;23.84;58.69;100953.59;5112542;28;20055;-64
2023/09/26 01:17:39;;;;;;;5.60;3.40;;;;;;;23.85;58.69;100959.91;5112489;28;20472;-65
2023/09/26 01:20:13;;;;;;;4.22;2.72;;;;;;;23.84;58.96;100948.16;5112782;28;20044;-64
2023/09/26 01:22:45;;;;;;;7.28;2.95;;;;;;;23.84;58.91;100953.59;5112609;28;20054;-65
2023/09/26 01:25:19;;;;;;;5.35;2.85;;;;;;;23.84;58.97;100956.31;5112494;28;20412;-64
2023/09/26 01:27:47;;;;;;;4.90;2.72;;;;;;;23.83;58.74;100954.56;5112318;28;20067;-65
2023/09/26 01:30:16;;;;;;;5.97;2.67;;;;;;;23.82;58.98;100955.59;5112560;28;20051;-65
2023/09/26 01:32:46;;;;;;;5.97;3.00;;;;;;;23.81;58.89;100953.91;5112431;28;20043;-65
2023/09/26 01:35:15;;;;;;;5.05;3.05;;;;;;;23.82;58.84;100957.47;5112315;28;20044;-65
2023/09/26 01:37:44;;;;;;;5.75;3.08;;;;;;;23.82;58.71;100952.03;5112141;28;20430;-65
2023/09/26 01:40:15;;;;;;;5.03;2.72;;;;;;;23.81;58.97;100956.63;5112212;28;20039;-66
2023/09/26 01:42:45;;;;;;;5.38;3.05;;;;;;;23.80;58.88;100957.63;5112265;28;20477;-65
2023/09/26 01:45:14;;;;;;;4.95;2.85;;;;;;;23.80;58.83;100956.78;5112347;28;20484;-66
2023/09/26 01:47:47;;;;;;;6.35;3.10;;;;;;;23.78;59.27;100958.81;5112120;28;20047;-65
2023/09/26 01:50:16;;;;;;;4.68;2.90;;;;;;;23.78;59.08;100956.09;5112393;28;20054;-66
2023/09/26 01:52:45;;;;;;;4.05;2.63;;;;;;;23.76;59.10;100956.25;5111930;28;20077;-65
2023/09/26 01:55:16;;;;;;;4.50;2.75;;;;;;;23.78;59.11;100958.81;5112409;28;20100;-65
2023/09/26 01:57:46;;;;;;;5.60;2.72;;;;;;;23.76;59.13;100958.97;5112270;28;20051;-65
2023/09/26 02:00:17;;;;;;;4.38;3.03;;;;;;;23.76;59.00;100955.41;5111973;28;20043;-65
2023/09/26 02:02:47;;;;;;;6.50;2.88;;;;;;;23.77;59.05;100962.56;5111972;28;20051;-65
2023/09/26 02:05:17;;;;;;;4.97;3.28;;;;;;;23.76;58.95;100958.97;5111924;28;20082;-65
2023/09/26 02:07:46;;;;;;;5.95;3.22;;;;;;;23.74;58.89;100961.03;5112212;28;20047;-65
2023/09/26 02:10:17;;;;;;;8.02;3.13;;;;;;;23.74;59.21;100957.41;5112008;28;20055;-65
2023/09/26 02:12:48;;;;;;;4.13;2.80;;;;;;;23.74;59.12;100961.03;5111947;28;20131;-65
2023/09/26 02:15:20;;;;;;;6.07;3.08;;;;;;;23.73;58.95;100956.56;5111987;28;20047;-65
2023/09/26 02:17:49;;;;;;;5.80;3.33;;;;;;;23.73;58.98;100961.16;5111836;28;20557;-65
2023/09/26 02:20:20;;;;;;;4.78;2.90;;;;;;;23.70;59.09;100957.75;5111932;28;20054;-65
2023/09/26 02:22:49;;;;;;;6.78;3.40;;;;;;;23.72;59.29;100954.84;5111826;28;20403;-65
2023/09/26 02:25:19;;;;;;;5.35;3.03;;;;;;;23.70;59.19;100951.44;5111871;28;20044;-65
2023/09/26 02:27:50;;;;;;;6.93;3.30;;;;;;;23.70;59.36;100957.75;5112002;28;20109;-65
2023/09/26 02:30:20;;;;;;;6.30;3.15;;;;;;;23.70;59.13;100956.91;5111730;28;20583;-65
2023/09/26 02:32:49;;;;;;;6.43;2.85;;;;;;;23.68;59.15;100957.06;5111900;28;20043;-65
2023/09/26 02:35:19;;;;;;;5.80;3.58;;;;;;;23.68;59.45;100961.66;5111800;28;20077;-65
2023/09/26 02:37:48;;;;;;;5.60;3.00;;;;;;;23.68;59.25;100965.22;5111578;28;20045;-65
2023/09/26 02:40:16;;;;;;;5.50;2.75;;;;;;;23.67;59.19;100971.69;5113615;28;20461;-65
2023/09/26 02:42:45;;;;;;;4.72;2.67;;;;;;;23.66;59.17;100972.72;5115457;28;20130;-65
2023/09/26 02:45:15;;;;;;;5.30;3.17;;;;;;;23.67;59.24;100970.84;5115538;28;20541;-65
2023/09/26 02:47:44;;;;;;;5.85;2.92;;;;;;;23.66;59.07;100967.25;5115563;28;20050;-65
2023/09/26 02:50:13;;;;;;;4.38;2.83;;;;;;;23.65;59.39;100970.16;5115370;28;20054;-65
2023/09/26 02:52:43;;;;;;;4.72;2.70;;;;;;;23.65;59.32;100970.16;5115331;28;20185;-65
2023/09/26 02:55:12;;;;;;;5.82;3.25;;;;;;;23.65;59.44;100971.00;5115446;28;20047;-65
2023/09/26 02:57:40;;;;;;;5.85;3.20;;;;;;;23.64;59.53;100962.97;5115388;28;20087;-65
2023/09/26 03:00:16;;;;;;;5.38;3.20;;;;;;;23.64;59.27;100971.13;5115390;28;20077;-65
2023/09/26 03:02:46;;;;;;;5.13;3.00;;;;;;;23.64;59.31;100976.59;5115211;28;20059;-66
2023/09/26 03:05:16;;;;;;;5.10;3.20;;;;;;;23.61;59.49;100966.03;5115044;28;20066;-65
2023/09/26 03:07:44;;;;;;;5.35;2.97;;;;;;;23.62;59.40;100962.28;5115101;28;20075;-66
2023/09/26 03:10:16;;;;;;;5.18;2.95;;;;;;;23.62;59.55;100965.00;5114842;28;20423;-65
2023/09/26 03:12:46;;;;;;;5.40;3.40;;;;;;;23.61;59.51;100969.59;5114955;28;20155;-65
2023/09/26 03:15:15;;;;;;;5.68;3.20;;;;;;;23.61;59.44;100969.59;5115019;28;20047;-65
2023/09/26 03:17:43;;;;;;;4.90;3.28;;;;;;;23.61;59.38;100969.59;5115077;28;20047;-65
2023/09/26 03:20:15;;;;;;;5.63;3.42;;;;;;;23.61;59.63;100968.75;5114782;28;20142;-65
2023/09/26 03:22:44;;;;;;;6.43;3.50;;;;;;;23.60;59.31;100972.47;5114687;28;20040;-65
2023/09/26 03:25:13;;;;;;;6.70;3.45;;;;;;;23.59;59.45;100973.50;5114915;28;20134;-65
2023/09/26 03:27:42;;;;;;;8.02;3.25;;;;;;;23.58;59.45;100971.75;5114665;28;20059;-65
2023/09/26 03:30:11;;;;;;;5.30;2.88;;;;;;;23.57;59.44;100967.34;5114761;28;20047;-65
2023/09/26 03:32:39;;;;;;;4.90;2.95;;;;;;;23.57;59.38;100972.78;5114625;28;20500;-65
2023/09/26 03:35:12;;;;;;;4.97;3.13;;;;;;;23.58;59.64;100975.34;5114543;28;20126;-66
2023/09/26 03:37:41;;;;;;;5.07;3.10;;;;;;;23.57;59.51;100972.78;5114813;28;20138;-65
2023/09/26 03:40:10;;;;;;;5.40;3.22;;;;;;;23.55;59.49;100969.38;5114582;28;20450;-65
2023/09/26 03:42:38;;;;;;;6.50;3.70;;;;;;;23.57;59.59;100979.06;5114424;28;20047;-65
2023/09/26 03:45:08;;;;;;;5.80;3.20;;;;;;;23.56;59.59;100982.81;5114454;28;20048;-65
2023/09/26 03:47:37;;;;;;;5.22;3.17;;;;;;;23.56;59.74;100981.97;5114320;28;20043;-65
2023/09/26 03:50:06;;;;;;;6.07;3.33;;;;;;;23.55;59.56;100981.09;5114326;28;20048;-65
2023/09/26 03:52:36;;;;;;;6.05;3.47;;;;;;;23.55;59.68;100980.25;5113302;28;20048;-66
2023/09/26 03:55:08;;;;;;;5.32;3.40;;;;;;;23.54;59.54;100981.25;5114383;28;20392;-66
2023/09/26 03:57:37;;;;;;;5.75;3.38;;;;;;;23.53;59.59;100974.94;5114303;28;20055;-66
2023/09/26 04:00:12;;;;;;;5.20;3.15;;;;;;;23.53;59.66;100982.25;5113956;28;20407;-66
2023/09/26 04:02:41;;;;;;;5.25;2.97;;;;;;;23.53;59.66;100976.81;5114168;28;20050;-66
2023/09/26 04:05:10;;;;;;;5.63;3.35;;;;;;;23.52;59.58;100964.22;5113960;28;20055;-66
2023/09/26 04:07:40;;;;;;;4.75;2.70;;;;;;;23.51;59.64;100970.69;5114001;28;20412;-65
2023/09/26 04:10:09;;;;;;;5.63;3.60;;;;;;;23.50;59.56;100972.53;5113953;28;20076;-65
2023/09/26 04:12:38;;;;;;;5.15;3.35;;;;;;;23.50;59.72;100967.09;5113596;28;20052;-65
2023/09/26 04:15:07;;;;;;;6.10;3.00;;;;;;;23.49;59.68;100976.28;5113543;28;20044;-66
2023/09/26 04:17:36;;;;;;;5.15;3.17;;;;;;;23.49;59.78;100978.16;5113887;28;20048;-65
2023/09/26 04:20:10;;;;;;;6.70;3.40;;;;;;;23.50;59.67;100982.59;5113303;28;20127;-66
2023/09/26 04:22:59;;;;;;;5.43;3.55;;;;;;;23.47;59.52;100978.31;5113697;28;20044;-65
2023/09/26 04:25:29;;;;;;;5.47;3.22;;;;;;;23.46;59.46;100976.63;5113594;28;20047;-65
2023/09/26 04:27:58;;;;;;;4.75;3.10;;;;;;;23.47;59.79;100978.31;5113741;28;20047;-65
2023/09/26 04:30:26;;;;;;;5.18;3.20;;;;;;;23.47;59.84;100985.63;5113676;28;20072;-65
2023/09/26 04:32:55;;;;;;;6.63;3.72;;;;;;;23.47;59.75;100983.75;5113470;28;20166;-65
2023/09/26 04:35:23;;;;;;;7.13;3.90;;;;;;;23.47;59.73;100985.63;5113284;28;20052;-65
2023/09/26 04:37:52;;;;;;;6.20;3.63;;;;;;;23.47;59.60;100988.34;5113319;28;20081;-65
2023/09/26 04:40:22;;;;;;;6.93;3.22;;;;;;;23.45;59.79;100990.34;5113278;28;20104;-64
2023/09/26 04:42:52;;;;;;;6.05;3.25;;;;;;;23.45;59.86;100993.06;5113225;28;20082;-66
2023/09/26 04:45:20;;;;;;;6.93;3.13;;;;;;;23.45;59.59;101001.25;5113241;28;20043;-66
2023/09/26 04:47:49;;;;;;;7.63;3.50;;;;;;;23.45;59.68;101001.25;5113148;28;20044;-66
2023/09/26 04:50:17;;;;;;;5.75;3.53;;;;;;;23.41;59.61;100996.13;5112994;28;20047;-65
2023/09/26 04:52:46;;;;;;;5.90;2.97;;;;;;;23.41;59.71;100996.13;5112775;28;20407;-66
2023/09/26 04:55:14;;;;;;;5.07;3.03;;;;;;;23.42;59.77;100996.97;5113074;28;20130;-66
2023/09/26 04:57:44;;;;;;;4.95;3.20;;;;;;;23.41;59.71;101007.00;5113099;28;20132;-65
2023/09/26 05:00:17;;;;;;;4.97;3.08;;;;;;;23.41;59.59;101007.00;5112792;28;20044;-66
2023/09/26 05:02:45;;;;;;;5.68;3.78;;;;;;;23.40;59.90;101001.72;5112088;28;20054;-66
2023/09/26 05:05:14;;;;;;;5.35;3.25;;;;;;;23.41;59.89;101004.28;5112441;28;20063;-66
2023/09/26 05:07:43;;;;;;;4.60;3.05;;;;;;;23.40;59.56;101005.31;5112787;28;20047;-66
2023/09/26 05:10:12;;;;;;;6.88;3.58;;;;;;;23.41;59.83;101011.59;5112636;28;20048;-66
2023/09/26 05:12:41;;;;;;;6.82;4.10;;;;;;;23.38;59.81;101014.66;5112301;28;20139;-66
2023/09/26 05:15:13;;;;;;;6.97;3.50;;;;;;;23.39;59.77;101010.91;5112410;28;20047;-66
2023/09/26 05:17:42;;;;;;;6.63;3.77;;;;;;;23.39;59.92;101003.59;5112490;28;20127;-66
2023/09/26 05:20:12;;;;;;;5.63;3.50;;;;;;;23.37;59.59;101005.63;5112422;28;20048;-66
2023/09/26 05:22:44;;;;;;;5.40;3.63;;;;;;;23.39;59.67;101005.47;5112765;28;20044;-66
2023/09/26 05:25:13;;;;;;;4.72;3.47;;;;;;;23.38;59.85;101007.34;5112356;28;20048;-66
2023/09/26 05:27:43;;;;;;;7.10;3.90;;;;;;;23.38;59.95;101010.06;5112212;28;20052;-66
2023/09/26 05:30:14;;;;;;;7.55;3.97;;;;;;;23.39;60.38;101019.09;5111942;28;20454;-66
2023/09/26 05:32:42;;;;;;;4.75;3.13;;;;;;;23.39;60.25;101016.38;5112349;28;20377;-66
2023/09/26 05:35:12;;;;;;;4.57;2.90;;;;;;;23.39;60.38;101014.50;5112199;28;20051;-65
2023/09/26 05:37:40;;;;;;;6.45;3.90;;;;;;;23.38;60.87;101018.22;5111890;28;20071;-66
2023/09/26 05:40:09;;;;;;;5.25;3.08;;;;;;;23.39;60.77;101011.78;5107945;28;20566;-65
2023/09/26 05:42:39;;;;;;;6.10;3.33;;;;;;;23.39;60.65;101014.50;5090165;28;20044;-65
2023/09/26 05:45:09;;;;;;;4.80;3.17;;;;;;;23.39;60.80;101017.22;5090414;28;20044;-66
2023/09/26 05:47:38;;;;;;;7.75;3.22;;;;;;;23.40;60.79;101013.47;5090066;28;20044;-65
2023/09/26 05:50:07;;;;;;;6.85;3.45;;;;;;;23.40;60.78;101020.78;5091091;28;20077;-65
2023/09/26 05:52:35;;;;;;;6.68;3.60;;;;;;;23.41;60.72;101020.63;5090457;28;20048;-65
2023/09/26 05:55:05;;;;;;;6.35;3.40;;;;;;;23.40;60.99;101021.66;5091848;28;20050;-65
2023/09/26 05:57:34;;;;;;;6.32;3.78;;;;;;;23.41;60.93;101017.06;5091198;28;20131;-65
2023/09/26 06:00:04;;;;;;;6.32;3.92;;;;;;;23.39;60.70;101019.94;5091539;28;20051;-65
2023/09/26 06:02:33;;;;;;;7.63;4.00;;;;;;;23.39;60.73;101019.94;5091237;28;20051;-65
2023/09/26 06:05:03;;;;;;;4.82;3.10;;;;;;;23.39;60.86;101014.50;5091613;28;20127;-66
2023/09/26 06:07:32;;;;;;;6.63;3.25;;;;;;;23.40;61.10;101021.66;5091516;28;20048;-66
2023/09/26 06:10:00;;;;;;;6.30;3.45;;;;;;;23.42;60.92;101016.03;5091407;28;20049;-66
2023/09/26 06:12:37;;;;;;;6.95;3.20;;;;;;;23.41;61.33;101017.91;5091519;28;20067;-66
2023/09/26 06:15:07;;;;;;;6.43;3.00;;;;;;;23.41;61.01;101020.63;5093202;28;20486;-66
2023/09/26 06:17:35;;;;;;;5.43;3.38;;;;;;;23.42;61.25;101019.63;5095552;28;20167;-69
2023/09/26 06:20:08;;;;;;;5.97;3.10;;;;;;;23.41;61.06;101023.34;5095344;28;20047;-68
2023/09/26 06:22:36;;;;;;;;;;;;;;;23.42;60.97;101025.06;5095939;28;20477;-68
2023/09/26 06:25:06;;;;;;;6.95;3.25;;;;;;;23.43;61.03;101017.75;5095423;28;19924;-69
2023/09/26 06:27:35;;;;;;;5.63;3.05;;;;;;;23.42;60.94;101008.72;5095485;28;20052;-69
2023/09/26 06:30:05;;;;;;;7.18;3.15;;;;;;;23.42;61.51;101007.88;5095155;28;20134;-69
2023/09/26 06:32:35;;;;;;;6.28;3.10;;;;;;;23.43;61.57;101009.56;5095324;28;20101;-68
2023/09/26 06:35:05;;;;;;;6.18;3.40;;;;;;;23.45;61.45;101012.13;5095259;28;20461;-68
2023/09/26 06:37:34;;;;;;;6.47;3.20;;;;;;;23.43;61.64;101015.88;5095298;28;20405;-68
2023/09/26 06:40:04;;;;;;;5.95;3.28;;;;;;;23.42;61.55;101014.16;5095244;28;20055;-68
2023/09/26 06:42:33;;;;;;;5.30;3.35;;;;;;;23.45;61.61;101015.75;5095264;28;20488;-68
2023/09/26 06:45:06;;;;;;;7.70;3.30;;;;;;;23.45;61.76;101017.59;5094985;28;20466;-68
2023/09/26 06:47:34;;;;;;;10.68;3.25;;;;;;;23.46;61.51;101013.88;5094815;28;20051;-69
2023/09/26 06:50:02;;;;;;;12.85;4.10;;;;;;;23.43;61.74;101007.72;5095221;28;20052;-69
2023/09/26 06:52:33;;;;;;;11.02;5.00;;;;;;;23.46;61.71;101011.16;5094841;28;20516;-69
2023/09/26 06:55:09;;;;;;;12.02;5.25;;;;;;;23.46;61.39;101013.88;5094765;28;20087;-67
2023/09/26 06:57:38;;;;;;;9.23;5.15;;;;;;;23.49;61.89;101016.28;5106782;28;20109;-68
2023/09/26 07:00:12;;;;;;;13.82;5.75;;;;;;;23.48;61.75;101014.56;5112541;28;20660;-68
2023/09/26 07:02:40;;;;;;;10.02;4.72;;;;;;;23.49;61.88;101019.00;5103561;28;20058;-67
2023/09/26 07:05:09;;;;;;;12.52;5.30;;;;;;;23.49;61.92;101006.25;5094502;28;20048;-68
2023/09/26 07:07:39;;;;;;;10.23;4.95;;;;;;;23.51;61.65;101011.53;5111943;28;20130;-66
2023/09/26 07:10:10;;;;;;;8.60;4.43;;;;;;;23.50;61.77;101009.81;5114943;28;20483;-68
2023/09/26 07:12:39;;;;;;;9.05;5.03;;;;;;;23.51;61.78;101017.81;5114554;28;20112;-68
2023/09/26 07:15:09;;;;;;;9.27;4.70;;;;;;;23.49;61.83;101016.28;5114908;28;20122;-67
2023/09/26 07:17:38;;;;;;;7.78;4.20;;;;;;;23.52;61.44;101024.13;5114985;28;20135;-68
2023/09/26 07:20:13;;;;;;;7.90;4.93;;;;;;;23.53;61.82;101020.38;5114212;28;20048;-68
2023/09/26 07:22:43;;;;;;;9.30;4.47;;;;;;;23.53;61.68;101014.94;5114570;28;20086;-68
2023/09/26 07:25:12;;;;;;;8.48;4.38;;;;;;;23.52;61.69;101014.09;5114221;28;20047;-68
2023/09/26 07:27:40;;;;;;;10.32;4.88;;;;;;;23.52;61.59;101022.25;5114703;28;20185;-68
2023/09/26 07:30:12;;;;;;;7.40;4.13;;;;;;;23.53;61.75;101014.94;5114535;28;20518;-68
2023/09/26 07:32:40;;;;;;;10.32;4.75;;;;;;;23.54;61.74;101031.09;5114243;28;20079;-68
2023/09/26 07:35:09;;;;;;;11.93;4.40;;;;;;;23.56;61.80;101036.41;5113931;28;20122;-68
2023/09/26 07:37:38;;;;;;;10.05;4.63;;;;;;;23.54;61.70;101027.53;5114349;28;20130;-68
2023/09/26 07:40:09;;;;;;;10.45;4.47;;;;;;;23.56;61.74;101033.69;5114239;28;20510;-68
2023/09/26 07:42:39;;;;;;;10.52;4.70;;;;;;;23.56;61.78;101030.97;5114466;28;20108;-68
2023/09/26 07:45:08;;;;;;;9.32;4.38;;;;;;;23.57;61.60;101032.69;5114499;28;20055;-68
2023/09/26 07:47:37;;;;;;;9.40;4.68;;;;;;;23.58;61.76;101040.69;5114198;28;20051;-68
2023/09/26 07:50:06;;;;;;;11.68;4.97;;;;;;;23.58;61.75;101035.25;5114165;28;20044;-68
2023/09/26 07:52:34;;;;;;;14.57;4.68;;;;;;;23.59;61.76;101047.88;5114133;28;20039;-68
2023/09/26 07:55:03;;;;;;;8.07;4.07;;;;;;;23.60;61.78;101051.44;5114259;28;20058;-68
2023/09/26 07:57:32;;;;;;;11.32;4.53;;;;;;;23.60;61.82;101043.28;5114271;28;20413;-68
2023/09/26 08:00:01;;;;;;;9.05;4.45;;;;;;;23.60;61.68;101046.84;5113752;28;20043;-67
2023/09/26 08:02:30;;;;;;;7.68;4.50;;;;;;;23.61;61.96;101045.00;5113766;28;20051;-68
2023/09/26 08:04:58;;;;;;;11.43;4.63;;;;;;;23.62;61.68;101043.97;5113694;28;20553;-68
2023/09/26 08:07:27;;;;;;;9.80;4.25;;;;;;;23.62;61.60;101052.16;5113953;28;20048;-68
2023/09/26 08:10:00;;;;;;;9.48;4.30;;;;;;;23.63;61.79;101042.97;5113889;28;20040;-68
2023/09/26 08:12:29;;;;;;;7.88;4.40;;;;;;;23.64;61.49;101050.13;5114028;28;20048;-68
2023/09/26 08:14:59;;;;;;;9.05;4.40;;;;;;;23.62;61.54;101041.25;5114374;28;20050;-68
2023/09/26 08:17:28;;;;;;;6.60;4.00;;;;;;;23.65;61.67;101046.41;5113436;28;20039;-68
2023/09/26 08:19:56;;;;;;;10.55;4.45;;;;;;;23.66;61.51;101037.22;5113414;28;20477;-68
2023/09/26 08:22:25;;;;;;;8.13;4.03;;;;;;;23.67;61.48;101036.19;5113287;28;20051;-68
2023/09/26 08:24:55;;;;;;;8.55;4.60;;;;;;;23.67;61.54;101033.47;5113602;28;20052;-68
2023/09/26 08:27:26;;;;;;;9.57;4.32;;;;;;;23.67;61.46;101039.78;5113629;28;20044;-68
2023/09/26 08:29:54;;;;;;;8.10;4.25;;;;;;;23.68;61.44;101036.03;5113212;28;20051;-67
2023/09/26 08:32:23;;;;;;;8.43;4.45;;;;;;;23.69;61.75;101031.44;5113455;28;20398;-68
2023/09/26 08:34:52;;;;;;;10.23;4.82;;;;;;;23.70;61.52;101031.28;5113466;28;20044;-68
2023/09/26 08:37:20;;;;;;;10.48;4.78;;;;;;;23.72;61.40;101036.56;5113032;28;20050;-67
2023/09/26 08:39:48;;;;;;;10.13;4.45;;;;;;;23.73;61.41;101031.97;5113738;28;20466;-68
2023/09/26 08:42:23;;;;;;;8.15;4.38;;;;;;;23.73;61.44;101031.97;5113095;28;20101;-67
2023/09/26 08:44:51;;;;;;;8.88;4.43;;;;;;;23.73;61.52;101021.94;5112991;28;20445;-68
2023/09/26 08:47:23;;;;;;;11.63;4.75;;;;;;;23.75;61.37;101030.81;5113252;28;20075;-67
2023/09/26 08:49:54;;;;;;;6.78;4.03;;;;;;;23.76;61.58;101029.81;5112848;28;20131;-68
2023/09/26 08:52:23;;;;;;;6.93;4.13;;;;;;;23.78;61.45;101033.22;5112977;28;20392;-68
2023/09/26 08:54:51;;;;;;;8.18;4.75;;;;;;;23.77;61.43;101022.47;5112818;28;20051;-68
2023/09/26 08:57:20;;;;;;;8.88;4.95;;;;;;;23.78;61.42;101018.75;5113016;28;20240;-68
2023/09/26 08:59:49;;;;;;;10.80;4.18;;;;;;;23.80;61.11;101022.16;5094792;28;20484;-67
2023/09/26 09:02:18;;;;;;;9.98;4.72;;;;;;;23.80;61.53;101016.72;5112605;28;20087;-67
2023/09/26 09:04:48;;;;;;;9.95;4.32;;;;;;;23.82;61.52;101023.69;5112915;28;20047;-67
2023/09/26 09:07:16;;;;;;;8.18;4.22;;;;;;;23.83;61.64;101022.69;5112634;28;20050;-67
2023/09/26 09:10:04;;;;;;;7.68;4.55;;;;;;;23.84;61.48;101016.25;5112442;28;20412;-67
2023/09/26 09:12:32;;;;;;;7.22;4.40;;;;;;;23.84;61.44;101018.97;5112560;28;20071;-68
2023/09/26 09:15:01;;;;;;;8.43;4.47;;;;;;;23.88;61.71;101022.22;5112502;28;20429;-68
2023/09/26 09:17:40;;;;;;;7.32;4.43;;;;;;;23.85;61.63;101020.69;5112761;28;20079;-67
2023/09/26 09:20:16;;;;;;;10.20;4.30;;;;;;;23.90;61.49;101014.72;5112139;28;20051;-68
2023/09/26 09:22:46;;;;;;;7.18;4.10;;;;;;;23.90;61.40;101020.19;5112278;28;20488;-68
2023/09/26 09:25:15;;;;;;;8.80;4.25;;;;;;;23.92;61.55;101013.56;5112349;28;20507;-68
2023/09/26 09:27:44;;;;;;;8.57;4.15;;;;;;;23.93;61.37;101018.00;5112514;28;20046;-68
2023/09/26 09:30:14;;;;;;;7.45;3.85;;;;;;;23.95;61.34;101015.97;5112408;28;20127;-68
2023/09/26 09:32:44;;;;;;;7.53;4.70;;;;;;;23.95;61.47;101015.97;5112256;28;20112;-68
2023/09/26 09:35:14;;;;;;;6.88;4.18;;;;;;;23.97;61.34;101007.63;5112543;28;20108;-68
2023/09/26 09:37:43;;;;;;;13.43;4.35;;;;;;;24.00;61.17;101007.31;5112382;28;20043;-68
2023/09/26 09:40:16;;;;;;;9.63;4.72;;;;;;;24.02;61.13;101009.88;5112211;28;20104;-68
2023/09/26 09:42:45;;;;;;;9.45;4.80;;;;;;;24.05;61.35;101004.13;5112064;28;20050;-68
2023/09/26 09:45:19;;;;;;;7.35;4.30;;;;;;;24.06;61.27;101000.38;5112145;28;20100;-68
2023/09/26 09:47:49;;;;;;;6.80;4.22;;;;;;;24.08;61.41;100992.88;5112469;28;20090;-69
2023/09/26 09:50:19;;;;;;;7.70;4.38;;;;;;;24.10;61.34;100991.69;5112039;28;20491;-69
2023/09/26 09:52:51;;;;;;;10.38;4.45;;;;;;;24.11;61.20;100985.22;5111981;28;20040;-69
2023/09/26 09:55:21;;;;;;;7.35;4.10;;;;;;;24.14;61.25;100987.66;5112102;28;20135;-69
2023/09/26 09:57:51;;;;;;;6.88;4.53;;;;;;;24.16;61.17;100982.03;5112176;28;20485;-69
2023/09/26 10:00:24;;;;;;;6.47;3.90;;;;;;;24.18;61.14;100977.25;5112172;28;20100;-68
2023/09/26 10:02:53;;;;;;;7.55;4.30;;;;;;;24.20;60.99;100976.06;5111747;28;20162;-68
2023/09/26 10:05:22;;;;;;;8.68;4.30;;;;;;;24.22;61.37;100967.72;5111900;28;20047;-68
2023/09/26 10:07:51;;;;;;;9.95;4.22;;;;;;;24.25;61.08;100975.59;5111854;28;20054;-69
2023/09/26 10:10:21;;;;;;;7.30;4.20;;;;;;;24.26;61.22;100963.69;5111541;28;20120;-69
2023/09/26 10:12:50;;;;;;;6.90;4.20;;;;;;;24.30;61.00;100965.03;5111855;28;20059;-68
2023/09/26 10:16:04;;;;;;;7.28;4.45;;;;;;;24.33;60.98;100964.78;5111874;28;20047;-69
2023/09/26 10:18:34;;;;;;;7.15;4.18;;;;;;;24.35;61.24;100961.88;5111570;28;20056;-68
2023/09/26 10:21:04;;;;;;;7.47;4.18;;;;;;;24.37;61.00;100954.38;5111769;28;20044;-68
2023/09/26 10:23:33;;;;;;;6.78;4.03;;;;;;;24.40;60.90;100957.63;5111706;28;20100;-68
2023/09/26 10:26:03;;;;;;;7.43;4.38;;;;;;;24.44;61.06;100960.88;5111873;28;20130;-68
2023/09/26 10:28:32;;;;;;;8.13;4.22;;;;;;;24.46;60.69;100954.25;5111956;28;20044;-68
2023/09/26 10:31:01;;;;;;;8.10;4.13;;;;;;;24.48;60.72;100957.66;5111765;28;20458;-68
2023/09/26 10:33:30;;;;;;;5.85;3.72;;;;;;;24.51;60.58;100949.16;5111543;28;20044;-68
2023/09/26 10:36:09;;;;;;;6.35;3.95;;;;;;;24.54;60.63;100943.38;5111788;28;20059;-68
2023/09/26 10:38:37;;;;;;;5.85;4.22;;;;;;;24.58;60.47;100943.03;5111504;28;20052;-68
2023/09/26 10:41:06;;;;;;;6.57;3.90;;;;;;;24.60;60.19;100936.38;5111473;28;20411;-68
2023/09/26 10:43:34;;;;;;;6.63;3.97;;;;;;;24.62;60.18;100931.63;5111362;28;20107;-69
2023/09/26 10:46:19;;;;;;;6.43;4.15;;;;;;;24.67;60.17;100933.84;5111721;28;20051;-69
2023/09/26 10:48:48;;;;;;;10.20;4.22;;;;;;;24.70;59.67;100928.03;5111522;28;20048;-68
2023/09/26 10:51:18;;;;;;;6.50;4.15;;;;;;;24.73;59.84;100927.72;5111895;28;20414;-69
2023/09/26 10:53:48;;;;;;;7.47;4.20;;;;;;;24.77;59.64;100923.63;5111811;28;20044;-69
2023/09/26 10:56:16;;;;;;;8.02;4.05;;;;;;;24.81;59.57;100919.56;5111355;28;20055;-69
2023/09/26 10:58:45;;;;;;;6.55;3.92;;;;;;;24.83;59.69;100922.97;5111546;28;20476;-69
2023/09/26 11:01:13;;;;;;;6.93;3.92;;;;;;;24.87;59.38;100921.59;5113221;28;20059;-69
2023/09/26 11:03:41;;;;;;;7.35;4.43;;;;;;;24.90;59.30;100918.56;5115047;28;20075;-69
2023/09/26 11:06:11;;;;;;;6.88;4.07;;;;;;;24.95;59.30;100926.22;5115026;28;20051;-69
2023/09/26 11:09:01;;;;;;;7.13;4.10;;;;;;;24.98;58.81;100918.53;5114825;28;20138;-69
2023/09/26 11:11:29;;;;;;;6.15;4.25;;;;;;;25.00;59.08;100913.78;5115128;28;20459;-69
2023/09/26 11:13:58;;;;;;;6.07;3.60;;;;;;;25.04;58.74;100909.72;5114783;28;20047;-69
2023/09/26 11:16:27;;;;;;;6.68;3.88;;;;;;;25.08;58.72;100911.06;5114782;28;20544;-69
2023/09/26 11:18:55;;;;;;;7.07;3.95;;;;;;;25.11;59.09;100902.56;5114889;28;20043;-69
2023/09/26 11:21:24;;;;;;;6.20;3.70;;;;;;;25.14;58.46;100889.56;5114639;28;20504;-69
2023/09/26 11:23:58;;;;;;;7.43;4.13;;;;;;;25.18;58.57;100894.50;5114880;28;20044;-69
2023/09/26 11:26:27;;;;;;;5.03;3.67;;;;;;;25.21;58.47;100893.34;5115006;28;20051;-69
2023/09/26 11:28:56;;;;;;;7.10;4.13;;;;;;;25.24;58.46;100882.91;5114791;28;20102;-69
2023/09/26 11:31:27;;;;;;;6.05;3.70;;;;;;;25.27;58.49;100889.91;5114642;28;20180;-69
2023/09/26 11:33:57;;;;;;;6.47;3.97;;;;;;;25.31;58.18;100883.09;5114529;28;20481;-68
2023/09/26 11:36:29;;;;;;;7.72;4.22;;;;;;;25.35;58.29;100882.56;5114195;28;20485;-69